createdAt,value
2019-04-11T00:02:41.012Z,4.14
2019-04-11T00:06:45.937Z,4.27
2019-04-11T00:10:50.827Z,4.36
2019-04-11T00:14:56.035Z,4.31
2019-04-11T00:19:01.025Z,4.19
2019-04-11T00:23:06.184Z,4.11
2019-04-11T00:27:11.080Z,3.90
2019-04-11T00:31:16.779Z,3.82
2019-04-11T00:35:21.722Z,3.75
2019-04-11T00:39:27.848Z,3.78
2019-04-11T00:43:37.660Z,3.75
2019-04-11T00:47:41.512Z,3.78
2019-04-11T00:51:47.708Z,3.76
2019-04-11T00:55:53.514Z,3.73
2019-04-11T00:59:58.560Z,3.70
2019-04-11T01:04:03.493Z,3.68
2019-04-11T01:08:09.390Z,3.67
2019-04-11T01:12:14.667Z,3.59
2019-04-11T01:16:21.221Z,3.51
2019-04-11T01:20:27.135Z,3.46
2019-04-11T01:24:33.652Z,3.40
2019-04-11T01:28:38.660Z,3.35
2019-04-11T01:32:43.569Z,3.33
2019-04-11T01:36:48.476Z,3.30
2019-04-11T01:40:54.347Z,3.28
2019-04-11T01:44:59.322Z,3.25
2019-04-11T01:49:12.265Z,3.18
2019-04-11T01:53:17.275Z,3.06
2019-04-11T01:57:22.194Z,3.02
2019-04-11T02:01:28.732Z,2.99
2019-04-11T02:05:35.042Z,3.00
2019-04-11T02:09:40.172Z,3.02
2019-04-11T02:13:45.012Z,3.07
2019-04-11T02:17:50.917Z,3.05
2019-04-11T02:21:57.953Z,3.02
2019-04-11T02:26:11.407Z,2.97
2019-04-11T02:30:18.915Z,2.89
2019-04-11T02:34:23.503Z,2.91
2019-04-11T02:38:29.169Z,2.82
2019-04-11T02:42:35.815Z,2.78
2019-04-11T02:46:48.334Z,2.68
2019-04-11T02:50:47.983Z,2.58
2019-04-11T02:54:54.522Z,2.50
2019-04-11T02:59:02.092Z,2.43
2019-04-11T03:03:08.430Z,2.38
2019-04-11T03:07:14.616Z,2.39
2019-04-11T03:11:21.861Z,2.44
2019-04-11T03:15:42.030Z,2.36
2019-04-11T03:19:43.858Z,2.33
2019-04-11T03:23:41.626Z,2.31
2019-04-11T03:27:47.466Z,2.29
2019-04-11T03:36:51.148Z,2.20
2019-04-11T03:40:29.120Z,2.13
2019-04-11T03:44:21.239Z,2.14
2019-04-11T03:48:33.230Z,2.10
2019-04-11T03:52:28.267Z,2.07
2019-04-11T03:56:35.043Z,2.06
2019-04-11T04:00:43.903Z,2.02
2019-04-11T04:04:49.171Z,2.02
2019-04-11T04:08:55.599Z,1.96
2019-04-11T04:13:02.430Z,1.94
2019-04-11T04:17:11.111Z,1.87
2019-04-11T04:21:24.735Z,1.89
2019-04-11T04:25:29.946Z,1.81
2019-04-11T04:29:37.268Z,1.79
2019-04-11T04:33:42.833Z,1.82
2019-04-11T04:37:49.818Z,1.88
2019-04-11T04:42:05.943Z,1.94
2019-04-11T04:46:20.547Z,1.94
2019-04-11T04:50:11.042Z,2.00
2019-04-11T04:54:16.422Z,1.98
2019-04-11T04:58:22.292Z,2.00
2019-04-11T05:02:28.700Z,2.10
2019-04-11T05:06:34.666Z,2.16
2019-04-11T05:10:40.323Z,2.19
2019-04-11T05:14:45.621Z,2.25
2019-04-11T05:18:50.707Z,2.26
2019-04-11T05:22:55.914Z,2.33
2019-04-11T05:27:00.916Z,2.42
2019-04-11T05:31:06.064Z,2.46
2019-04-11T05:35:11.171Z,2.43
2019-04-11T05:39:18.423Z,2.26
2019-04-11T05:43:27.963Z,2.20
2019-04-11T05:47:29.714Z,2.26
2019-04-11T05:51:40.026Z,2.28
2019-04-11T05:55:45.137Z,2.32
2019-04-11T05:59:49.939Z,2.40
2019-04-11T06:03:57.366Z,2.50
2019-04-11T06:08:06.090Z,3.41
2019-04-11T06:12:15.555Z,7.30
2019-04-11T06:16:20.813Z,9.89
2019-04-11T06:20:31.124Z,10.88
2019-04-11T06:24:44.669Z,11.45
2019-04-11T06:28:54.013Z,12.29
2019-04-11T06:33:05.221Z,12.76
2019-04-11T06:37:14.763Z,12.89
2019-04-11T06:41:27.054Z,13.26
2019-04-11T06:45:39.734Z,13.91
2019-04-11T06:49:49.138Z,13.83
2019-04-11T06:54:12.710Z,13.71
2019-04-11T06:58:22.039Z,13.69
2019-04-11T07:02:28.605Z,13.03
2019-04-11T07:06:35.688Z,8.90
2019-04-11T07:10:46.744Z,7.05
2019-04-11T07:14:53.366Z,6.31
2019-04-11T07:19:02.953Z,5.94
2019-04-11T07:23:26.450Z,5.76
2019-04-11T07:27:32.280Z,5.67
2019-04-11T07:31:39.737Z,5.77
2019-04-11T07:36:03.808Z,5.86
2019-04-11T07:40:13.015Z,5.70
2019-04-11T07:44:38.605Z,5.67
2019-04-11T07:48:44.757Z,5.68
2019-04-11T07:52:56.753Z,5.70
2019-04-11T07:57:04.059Z,5.83
2019-04-11T08:01:10.913Z,5.88
2019-04-11T08:05:21.534Z,6.00
2019-04-11T08:09:48.079Z,6.33
2019-04-11T08:14:02.115Z,6.42
2019-04-11T08:18:08.724Z,6.39
2019-04-11T08:22:19.036Z,6.25
2019-04-11T08:26:42.373Z,6.29
2019-04-11T08:31:05.572Z,6.21
2019-04-11T08:35:15.866Z,6.20
2019-04-11T08:39:20.830Z,6.37
2019-04-11T08:43:31.280Z,6.41
2019-04-11T08:47:47.094Z,6.40
2019-04-11T08:51:47.451Z,6.50
2019-04-11T08:55:57.082Z,6.58
2019-04-11T09:00:08.224Z,6.66
2019-04-11T09:04:24.011Z,6.58
2019-04-11T09:08:34.257Z,6.69
2019-04-11T09:12:40.904Z,6.78
2019-04-11T09:17:03.849Z,6.89
2019-04-11T09:21:28.589Z,6.99
2019-04-11T09:25:41.224Z,7.08
2019-04-11T09:30:02.727Z,7.19
2019-04-11T09:34:11.329Z,7.18
2019-04-11T09:38:24.342Z,7.00
2019-04-11T09:42:34.596Z,7.03
2019-04-11T09:46:50.581Z,7.02
2019-04-11T09:51:07.339Z,7.08
2019-04-11T09:55:19.809Z,7.13
2019-04-11T09:59:42.223Z,7.06
2019-04-11T10:03:48.682Z,7.15
2019-04-11T10:08:08.573Z,7.31
2019-04-11T10:12:31.913Z,7.17
2019-04-11T10:16:50.655Z,7.28
2019-04-11T10:20:57.074Z,7.22
2019-04-11T10:25:12.847Z,7.28
2019-04-11T10:29:36.328Z,7.28
2019-04-11T10:33:59.423Z,7.37
2019-04-11T10:38:06.786Z,7.35
2019-04-11T10:42:16.050Z,7.29
2019-04-11T10:46:31.470Z,7.39
2019-04-11T10:50:38.099Z,7.64
2019-04-11T10:54:45.060Z,7.83
2019-04-11T10:58:51.633Z,7.85
2019-04-11T11:03:06.959Z,7.91
2019-04-11T11:07:13.126Z,8.00
2019-04-11T11:11:22.576Z,8.22
2019-04-11T11:15:29.707Z,8.23
2019-04-11T11:19:59.436Z,8.27
2019-04-11T11:24:12.668Z,8.17
2019-04-11T11:28:19.380Z,8.37
2019-04-11T11:32:25.293Z,8.32
2019-04-11T11:36:48.119Z,8.43
2019-04-11T11:41:09.728Z,8.47
2019-04-11T11:45:17.309Z,8.58
2019-04-11T11:49:38.882Z,8.53
2019-04-11T11:53:49.092Z,8.64
2019-04-11T11:58:15.822Z,8.64
2019-04-11T12:02:23.043Z,8.61
2019-04-11T12:06:29.269Z,8.88
2019-04-11T12:10:35.846Z,9.06
2019-04-11T12:14:46.413Z,8.95
2019-04-11T12:19:10.809Z,8.97
2019-04-11T12:23:17.517Z,8.96
2019-04-11T12:27:40.072Z,8.97
2019-04-11T12:31:46.580Z,9.18
2019-04-11T12:35:58.711Z,9.14
2019-04-11T12:40:04.332Z,9.16
2019-04-11T12:44:22.888Z,9.18
2019-04-11T12:48:29.424Z,9.45
2019-04-11T12:52:38.635Z,9.39
2019-04-11T12:56:48.188Z,9.47
2019-04-11T13:00:54.726Z,9.47
2019-04-11T13:04:59.893Z,9.45
2019-04-11T13:09:27.759Z,9.47
2019-04-11T13:13:50.605Z,9.37
2019-04-11T13:17:59.793Z,9.50
2019-04-11T13:22:06.781Z,9.57
2019-04-11T13:26:29.288Z,9.79
2019-04-11T13:30:44.395Z,9.72
2019-04-11T13:34:50.926Z,9.76
2019-04-11T13:38:55.816Z,9.79
2019-04-11T13:43:08.303Z,9.83
2019-04-11T13:47:14.852Z,9.75
2019-04-11T13:51:24.491Z,9.88
2019-04-11T13:55:29.393Z,9.90
2019-04-11T13:59:35.935Z,9.76
2019-04-11T14:03:48.265Z,9.87
2019-04-11T14:07:54.805Z,9.84
2019-04-11T14:11:59.734Z,9.88
2019-04-11T14:16:23.956Z,9.83
2019-04-11T14:20:30.650Z,9.87
2019-04-11T14:24:41.824Z,9.84
2019-04-11T14:28:48.353Z,9.70
2019-04-11T14:32:53.999Z,9.68
2019-04-11T14:37:01.073Z,9.58
2019-04-11T14:41:19.539Z,9.60
2019-04-11T14:45:44.452Z,9.77
2019-04-11T14:49:50.986Z,9.86
2019-04-11T14:53:57.529Z,9.89
2019-04-11T14:58:13.226Z,9.81
2019-04-11T15:02:37.215Z,9.94
2019-04-11T15:06:46.173Z,9.94
2019-04-11T15:10:55.665Z,9.85
2019-04-11T15:15:19.781Z,9.85
2019-04-11T15:19:24.806Z,9.94
2019-04-11T15:23:31.346Z,10.10
2019-04-11T15:27:56.236Z,10.01
2019-04-11T15:32:05.719Z,10.01
2019-04-11T15:36:12.279Z,10.00
2019-04-11T15:40:17.763Z,9.86
2019-04-11T15:44:36.336Z,9.91
2019-04-11T15:48:42.879Z,9.91
2019-04-11T15:52:49.415Z,9.80
2019-04-11T15:56:55.953Z,9.55
2019-04-11T16:01:08.476Z,9.52
2019-04-11T16:05:31.662Z,9.56
2019-04-11T16:09:37.178Z,9.38
2019-04-11T16:13:43.732Z,9.47
2019-04-11T16:18:02.170Z,9.52
2019-04-11T16:22:11.614Z,9.52
2019-04-11T16:26:21.024Z,9.58
2019-04-11T16:30:27.564Z,9.48
2019-04-11T16:34:47.890Z,9.35
2019-04-11T16:38:49.661Z,9.36
2019-04-11T16:42:56.237Z,9.34
2019-04-11T16:47:19.155Z,9.29
2019-04-11T16:51:30.793Z,9.23
2019-04-11T16:55:30.661Z,9.20
2019-04-11T16:59:35.551Z,9.12
2019-04-11T17:03:40.446Z,8.92
2019-04-11T17:07:49.894Z,9.01
2019-04-11T17:11:56.819Z,9.06
2019-04-11T17:16:02.755Z,9.11
2019-04-11T17:20:07.903Z,8.94
2019-04-11T17:24:16.739Z,8.73
2019-04-11T17:28:22.839Z,8.62
2019-04-11T17:32:26.971Z,8.50
2019-04-11T17:36:33.550Z,8.35
2019-04-11T17:40:39.675Z,8.22
2019-04-11T17:44:45.015Z,8.12
2019-04-11T17:48:50.528Z,8.01
2019-04-11T17:52:55.782Z,7.93
2019-04-11T17:57:01.634Z,7.86
2019-04-11T18:01:06.664Z,7.78
2019-04-11T18:05:11.636Z,7.66
2019-04-11T18:09:16.522Z,7.58
2019-04-11T18:13:21.427Z,7.48
2019-04-11T18:17:26.319Z,7.38
2019-04-11T18:21:31.218Z,7.25
2019-04-11T18:25:36.121Z,7.17
2019-04-11T18:29:41.009Z,7.06
2019-04-11T18:33:46.044Z,6.99
2019-04-11T18:37:50.950Z,6.90
2019-04-11T18:41:57.670Z,6.80
2019-04-11T18:46:02.623Z,6.72
2019-04-11T18:50:08.434Z,6.64
2019-04-11T18:54:13.326Z,6.51
2019-04-11T18:58:18.221Z,6.39
2019-04-11T19:02:23.647Z,6.27
2019-04-11T19:06:28.631Z,6.16
2019-04-11T19:10:33.524Z,6.06
2019-04-11T19:14:38.430Z,5.96
2019-04-11T19:18:47.165Z,5.86
2019-04-11T19:22:49.932Z,5.76
2019-04-11T19:26:54.840Z,5.68
2019-04-11T19:30:59.733Z,5.61
2019-04-11T19:35:05.179Z,5.53
2019-04-11T19:39:13.507Z,5.42
2019-04-11T19:43:19.070Z,5.34
2019-04-11T19:47:23.447Z,5.25
2019-04-11T19:51:28.976Z,5.16
2019-04-11T19:55:36.076Z,5.10
2019-04-11T19:59:40.965Z,5.02
2019-04-11T20:03:45.842Z,4.95
2019-04-11T20:07:50.754Z,4.88
2019-04-11T20:11:57.887Z,4.88
2019-04-11T20:16:03.374Z,4.78
2019-04-11T20:20:08.463Z,4.73
2019-04-11T20:24:14.527Z,4.66
2019-04-11T20:28:20.878Z,4.61
2019-04-11T20:32:25.919Z,4.53
2019-04-11T20:36:33.602Z,4.42
2019-04-11T20:40:37.423Z,4.37
2019-04-11T20:44:42.321Z,4.27
2019-04-11T20:48:47.210Z,4.23
2019-04-11T20:52:52.110Z,4.22
2019-04-11T20:56:57.009Z,4.19
2019-04-11T21:01:01.910Z,4.13
2019-04-11T21:05:06.805Z,3.98
2019-04-11T21:09:12.462Z,3.87
2019-04-11T21:13:17.347Z,3.86
2019-04-11T21:17:22.238Z,3.79
2019-04-11T21:21:27.224Z,3.68
2019-04-11T21:25:32.107Z,3.55
2019-04-11T21:29:37.069Z,3.45
2019-04-11T21:33:41.891Z,3.44
2019-04-11T21:37:47.228Z,3.40
2019-04-11T21:41:52.130Z,3.28
2019-04-11T21:45:57.014Z,3.25
2019-04-11T21:50:01.908Z,3.23
2019-04-11T21:54:06.809Z,3.12
2019-04-11T21:58:11.703Z,3.12
2019-04-11T22:02:16.738Z,3.14
2019-04-11T22:06:21.637Z,3.11
2019-04-11T22:10:26.792Z,3.09
2019-04-11T22:14:31.701Z,3.05
2019-04-11T22:18:36.591Z,2.95
2019-04-11T22:22:41.508Z,2.92
2019-04-11T22:26:50.313Z,2.92
2019-04-11T22:30:55.071Z,2.77
2019-04-11T22:34:59.887Z,2.58
2019-04-11T22:39:08.067Z,2.52
2019-04-11T22:43:24.055Z,2.39
2019-04-11T22:47:19.552Z,2.22
2019-04-11T22:51:24.734Z,2.07
2019-04-11T22:55:29.633Z,2.04
2019-04-11T22:59:34.545Z,2.07
2019-04-11T23:03:41.085Z,2.05
2019-04-11T23:07:48.471Z,2.12
2019-04-11T23:11:52.559Z,2.07
2019-04-11T23:15:57.626Z,2.03
2019-04-11T23:20:02.526Z,2.05
2019-04-11T23:24:12.113Z,2.01
2019-04-11T23:28:15.848Z,1.93
2019-04-11T23:32:21.232Z,1.90
2019-04-11T23:36:26.783Z,1.72
2019-04-11T23:40:31.676Z,1.61
2019-04-11T23:44:37.646Z,1.58
2019-04-11T23:48:42.522Z,1.61
2019-04-11T23:52:47.419Z,1.57
2019-04-11T23:56:52.310Z,1.55
